Terminal Aerodrome Forecast
Issued by NWS Huntsville, AL

Home | Current Version | Previous Version | Text Only | Print | Product List | Glossary On
Versions: 1 2 3 4 5 6 7 8 9 10 11 12 13 14 15 16 17 18 19 20 21 22 23 24 25 26 27 28 29 30
000
FTUS44 KHUN 130520
TAFMSL
TAF
KMSL 130520Z 1306/1406 VRB02KT P6SM SCT250
      TEMPO 1309/1313 4SM BR
     FM131600 23006KT P6SM SCT040
     FM131900 22010KT P6SM BKN050
     FM140200 22003KT P6SM SCT060=

USA.gov is the U.S. government's official web portal to all federal, state and local government web resources and services.